createdAt,value
2022-08-17T00:00:33.294Z,18.57
2022-08-17T00:03:02.855Z,18.43
2022-08-17T00:05:32.596Z,17.53
2022-08-17T00:08:00.135Z,16.87
2022-08-17T00:10:27.961Z,16.73
2022-08-17T00:12:57.513Z,16.37
2022-08-17T00:15:26.377Z,16.27
2022-08-17T00:17:56.592Z,17.77
2022-08-17T00:20:30.589Z,16.23
2022-08-17T00:23:10.637Z,17.00
2022-08-17T00:25:38.487Z,17.10
2022-08-17T00:28:06.384Z,16.20
2022-08-17T00:30:52.739Z,15.70
2022-08-17T00:33:23.770Z,14.80
2022-08-17T00:35:51.962Z,16.40
2022-08-17T00:38:19.907Z,16.07
2022-08-17T00:40:50.375Z,16.23
2022-08-17T00:43:22.552Z,18.30
2022-08-17T00:45:51.494Z,15.57
2022-08-17T00:48:29.875Z,16.23
2022-08-17T00:51:02.806Z,17.10
2022-08-17T00:53:32.958Z,17.60
2022-08-17T00:56:03.116Z,18.57
2022-08-17T00:58:36.248Z,16.63
2022-08-17T01:01:06.731Z,17.53
2022-08-17T01:03:34.530Z,15.83
2022-08-17T01:06:04.384Z,17.03
2022-08-17T01:08:33.408Z,18.27
2022-08-17T01:11:04.036Z,17.47
2022-08-17T01:13:39.750Z,17.80
2022-08-17T01:16:15.851Z,18.00
2022-08-17T01:18:44.155Z,17.10
2022-08-17T01:21:15.607Z,16.50
2022-08-17T01:23:44.540Z,17.90
2022-08-17T01:26:12.103Z,17.20
2022-08-17T01:28:54.289Z,17.73
2022-08-17T01:31:25.459Z,18.20
2022-08-17T01:33:53.441Z,18.57
2022-08-17T01:36:21.366Z,18.07
2022-08-17T01:38:50.406Z,19.43
2022-08-17T01:41:18.392Z,17.73
2022-08-17T01:43:49.300Z,16.67
2022-08-17T01:46:20.975Z,17.97
2022-08-17T01:48:48.825Z,17.80
2022-08-17T01:51:16.986Z,18.93
2022-08-17T01:53:48.928Z,19.37
2022-08-17T01:56:20.904Z,19.00
2022-08-17T01:58:48.641Z,19.33
2022-08-17T02:01:17.823Z,19.00
2022-08-17T02:03:56.256Z,20.10
2022-08-17T02:06:31.237Z,18.83
2022-08-17T02:09:16.605Z,19.47
2022-08-17T02:11:46.431Z,19.73
2022-08-17T02:14:14.577Z,19.77
2022-08-17T02:16:42.560Z,19.43
2022-08-17T02:19:15.531Z,19.60
2022-08-17T02:21:45.218Z,18.87
2022-08-17T02:24:16.959Z,18.43
2022-08-17T02:26:46.806Z,19.07
2022-08-17T02:29:15.070Z,19.03
2022-08-17T02:31:42.906Z,18.97
2022-08-17T02:34:10.841Z,21.40
2022-08-17T02:36:38.868Z,19.10
2022-08-17T02:39:09.418Z,19.00
2022-08-17T02:41:37.350Z,17.90
2022-08-17T02:44:06.741Z,18.77
2022-08-17T02:46:34.333Z,20.17
2022-08-17T02:49:02.227Z,18.63
2022-08-17T02:51:29.862Z,19.80
2022-08-17T02:54:40.445Z,19.40
2022-08-17T02:56:45.238Z,20.37
2022-08-17T02:59:14.165Z,19.20
2022-08-17T03:01:41.702Z,20.77
2022-08-17T03:04:09.482Z,21.47
2022-08-17T03:06:37.348Z,21.33
2022-08-17T03:09:05.231Z,21.50
2022-08-17T03:11:32.785Z,18.87
2022-08-17T03:14:00.318Z,24.73
2022-08-17T03:16:29.186Z,20.97
2022-08-17T03:18:56.703Z,19.83
2022-08-17T03:21:24.407Z,19.43
2022-08-17T03:23:54.379Z,20.27
2022-08-17T03:26:22.269Z,25.70
2022-08-17T03:28:49.846Z,20.40
2022-08-17T03:31:18.286Z,22.07
2022-08-17T03:33:47.223Z,22.03
2022-08-17T03:36:14.895Z,22.80
2022-08-17T03:38:42.431Z,22.13
2022-08-17T03:41:13.804Z,19.93
2022-08-17T03:43:41.339Z,25.37
2022-08-17T03:46:28.310Z,21.30
2022-08-17T03:49:20.771Z,20.47
2022-08-17T03:52:05.873Z,21.27
2022-08-17T03:54:51.221Z,22.20
2022-08-17T03:57:19.017Z,20.63
2022-08-17T03:59:46.619Z,25.07
2022-08-17T04:02:18.959Z,23.70
2022-08-17T04:04:50.551Z,27.33
2022-08-17T04:07:18.378Z,23.73
2022-08-17T04:09:45.920Z,26.30
2022-08-17T04:12:15.733Z,22.97
2022-08-17T04:14:53.030Z,23.33
2022-08-17T04:17:24.044Z,23.87
2022-08-17T04:19:53.287Z,23.90
2022-08-17T04:22:30.099Z,22.53
2022-08-17T04:25:03.226Z,25.03
2022-08-17T04:27:30.761Z,24.97
2022-08-17T04:29:58.422Z,26.70
2022-08-17T04:33:03.902Z,24.20
2022-08-17T04:35:19.063Z,23.67
2022-08-17T04:37:47.374Z,27.07
2022-08-17T04:40:32.758Z,25.80
2022-08-17T04:43:04.959Z,25.87
2022-08-17T04:45:32.798Z,24.57
2022-08-17T04:48:01.756Z,23.10
2022-08-17T04:50:30.901Z,27.60
2022-08-17T04:52:58.696Z,26.10
2022-08-17T04:55:26.695Z,26.53
2022-08-17T04:57:54.191Z,25.70
2022-08-17T05:00:21.955Z,27.80
2022-08-17T05:02:51.152Z,26.17
2022-08-17T05:05:20.815Z,26.00
2022-08-17T05:07:52.281Z,28.27
2022-08-17T05:10:19.985Z,25.37
2022-08-17T05:12:47.593Z,28.53
2022-08-17T05:15:16.211Z,24.47
2022-08-17T05:17:43.825Z,26.57
2022-08-17T05:20:12.342Z,23.13
2022-08-17T05:22:51.106Z,20.73
2022-08-17T05:25:23.936Z,20.33
2022-08-17T05:27:54.085Z,20.67
2022-08-17T05:30:22.193Z,20.17
2022-08-17T05:32:54.492Z,19.20
2022-08-17T05:35:22.951Z,17.87
2022-08-17T05:37:52.214Z,18.20
2022-08-17T05:40:21.319Z,18.00
2022-08-17T05:42:49.031Z,17.40
2022-08-17T05:45:28.096Z,17.40
2022-08-17T05:48:07.196Z,16.70
2022-08-17T05:50:39.629Z,17.83
2022-08-17T05:53:11.934Z,17.73
2022-08-17T05:55:47.108Z,17.93
2022-08-17T05:58:21.190Z,19.17
2022-08-17T06:00:52.991Z,18.53
2022-08-17T06:03:30.515Z,17.97
2022-08-17T06:06:07.286Z,18.63
2022-08-17T06:08:43.155Z,19.37
2022-08-17T06:11:17.036Z,18.13
2022-08-17T06:14:06.288Z,19.13
2022-08-17T06:16:37.244Z,19.00
2022-08-17T06:19:07.529Z,20.10
2022-08-17T06:21:37.275Z,20.43
2022-08-17T06:24:09.559Z,21.50
2022-08-17T06:26:43.036Z,20.43
2022-08-17T06:29:23.467Z,21.33
2022-08-17T06:31:54.973Z,21.83
2022-08-17T06:34:22.747Z,21.33
2022-08-17T06:36:56.293Z,21.00
2022-08-17T06:39:33.861Z,22.23
2022-08-17T06:42:09.351Z,22.00
2022-08-17T06:45:02.502Z,22.80
2022-08-17T06:47:34.118Z,22.40
2022-08-17T06:50:08.711Z,21.70
2022-08-17T06:52:46.362Z,22.93
2022-08-17T06:55:21.209Z,23.07
2022-08-17T06:57:52.829Z,20.77
2022-08-17T07:00:23.157Z,20.13
2022-08-17T07:02:55.217Z,20.27
2022-08-17T07:05:27.070Z,21.43
2022-08-17T07:08:03.603Z,20.35
2022-08-17T07:10:37.705Z,21.08
2022-08-17T07:13:15.926Z,20.60
2022-08-17T07:15:43.982Z,20.85
2022-08-17T07:18:11.787Z,21.67
2022-08-17T07:20:42.698Z,21.42
2022-08-17T07:23:19.537Z,21.70
2022-08-17T07:25:48.562Z,21.58
2022-08-17T07:28:22.841Z,21.02
2022-08-17T07:30:53.287Z,21.85
2022-08-17T07:33:23.725Z,21.55
2022-08-17T07:35:52.034Z,21.55
2022-08-17T07:38:24.678Z,21.83
2022-08-17T07:41:04.584Z,21.20
2022-08-17T07:43:33.811Z,20.60
2022-08-17T07:46:30.323Z,19.98
2022-08-17T07:48:59.478Z,20.55
2022-08-17T07:51:30.134Z,20.58
2022-08-17T07:54:13.499Z,20.48
2022-08-17T07:56:46.246Z,20.60
2022-08-17T07:59:17.987Z,20.77
2022-08-17T08:02:05.421Z,19.67
2022-08-17T08:04:59.212Z,20.30
2022-08-17T08:07:26.710Z,20.13
2022-08-17T08:10:02.412Z,19.70
2022-08-17T08:12:34.345Z,20.15
2022-08-17T08:15:06.588Z,19.58
2022-08-17T08:17:37.378Z,19.77
2022-08-17T08:20:51.106Z,20.75
2022-08-17T08:23:09.669Z,19.40
2022-08-17T08:25:45.572Z,19.27
2022-08-17T08:28:22.897Z,19.60
2022-08-17T08:30:55.330Z,19.02
2022-08-17T08:33:35.726Z,18.95
2022-08-17T08:36:10.760Z,19.08
2022-08-17T08:38:47.260Z,18.33
2022-08-17T08:41:26.137Z,18.92
2022-08-17T08:44:01.806Z,19.00
2022-08-17T08:46:32.232Z,19.10
2022-08-17T08:50:02.737Z,19.10
2022-08-17T08:52:41.498Z,18.77
2022-08-17T08:55:12.940Z,19.25
2022-08-17T08:57:45.372Z,18.60
2022-08-17T09:00:18.959Z,18.77
2022-08-17T09:03:50.890Z,18.45
2022-08-17T09:06:38.788Z,17.80
2022-08-17T09:09:17.270Z,18.73
2022-08-17T09:12:01.901Z,18.00
2022-08-17T09:14:46.662Z,18.77
2022-08-17T09:17:19.117Z,19.00
2022-08-17T09:19:49.807Z,19.73
2022-08-17T09:22:31.603Z,19.52
2022-08-17T09:25:06.792Z,18.60
2022-08-17T09:27:39.330Z,18.80
2022-08-17T09:30:10.739Z,18.30
2022-08-17T09:32:41.673Z,18.38
2022-08-17T09:35:13.890Z,18.30
2022-08-17T09:37:51.456Z,18.27
2022-08-17T09:40:22.549Z,18.10
2022-08-17T09:42:53.758Z,18.23
2022-08-17T09:45:27.989Z,17.63
2022-08-17T09:48:00.939Z,17.38
2022-08-17T09:51:03.288Z,17.60
2022-08-17T09:53:19.906Z,17.00
2022-08-17T09:56:12.235Z,17.65
2022-08-17T09:58:51.475Z,17.02
2022-08-17T10:01:29.017Z,17.25
2022-08-17T10:04:12.091Z,17.45
2022-08-17T10:06:49.960Z,17.77
2022-08-17T10:10:58.757Z,17.10
2022-08-17T10:13:35.328Z,17.50
2022-08-17T10:16:08.693Z,16.67
2022-08-17T10:18:46.787Z,16.77
2022-08-17T10:21:33.021Z,16.48
2022-08-17T10:24:25.019Z,17.55
2022-08-17T10:26:56.286Z,17.15
2022-08-17T10:29:28.965Z,17.35
2022-08-17T10:32:00.509Z,17.17
2022-08-17T10:34:45.136Z,17.02
2022-08-17T10:37:33.938Z,17.02
2022-08-17T10:40:11.799Z,17.17
2022-08-17T10:42:48.833Z,16.88
2022-08-17T10:45:19.496Z,16.85
2022-08-17T10:48:04.727Z,16.65
2022-08-17T10:50:58.523Z,17.55
2022-08-17T10:53:55.194Z,16.63
2022-08-17T10:56:25.834Z,16.75
2022-08-17T10:58:57.094Z,16.30
2022-08-17T11:02:05.696Z,16.33
2022-08-17T11:04:47.706Z,15.98
2022-08-17T11:07:20.734Z,16.90
2022-08-17T11:10:02.786Z,16.70
2022-08-17T11:12:37.878Z,16.85
2022-08-17T11:15:19.535Z,16.70
2022-08-17T11:18:08.633Z,17.08
2022-08-17T11:20:58.247Z,17.08
2022-08-17T11:23:50.211Z,16.80
2022-08-17T11:26:26.093Z,17.30
2022-08-17T11:28:58.714Z,17.77
2022-08-17T11:31:38.806Z,17.30
2022-08-17T11:34:14.577Z,16.98
2022-08-17T11:37:20.822Z,16.58
2022-08-17T11:40:07.491Z,16.50
2022-08-17T11:42:47.247Z,17.27
2022-08-17T11:45:34.021Z,16.75
2022-08-17T11:48:28.342Z,16.50
2022-08-17T11:51:31.799Z,17.77
2022-08-17T11:54:31.029Z,17.05
2022-08-17T11:56:52.787Z,17.85
2022-08-17T11:59:58.592Z,16.67
2022-08-17T12:02:47.426Z,17.33
2022-08-17T12:05:30.554Z,16.65
2022-08-17T12:08:07.119Z,16.38
2022-08-17T12:10:37.083Z,15.93
2022-08-17T12:13:08.006Z,16.85
2022-08-17T12:15:38.553Z,16.80
2022-08-17T12:18:06.337Z,17.15
2022-08-17T12:20:37.985Z,16.92
2022-08-17T12:23:11.023Z,17.40
2022-08-17T12:25:43.153Z,17.40
2022-08-17T12:28:21.692Z,17.15
2022-08-17T12:30:51.941Z,17.60
2022-08-17T12:33:27.826Z,17.33
2022-08-17T12:35:59.915Z,17.45
2022-08-17T12:38:33.025Z,17.30
2022-08-17T12:41:22.231Z,17.40
2022-08-17T12:43:56.604Z,17.20
2022-08-17T12:46:24.118Z,17.55
2022-08-17T12:48:58.941Z,16.70
2022-08-17T12:51:29.888Z,17.42
2022-08-17T12:53:57.479Z,17.83
2022-08-17T12:56:25.010Z,17.25
2022-08-17T12:58:55.446Z,18.10
2022-08-17T13:01:24.916Z,17.60
2022-08-17T13:03:59.530Z,16.95
2022-08-17T13:06:30.146Z,17.17
2022-08-17T13:08:57.806Z,17.23
2022-08-17T13:11:26.243Z,17.15
2022-08-17T13:13:56.066Z,17.60
2022-08-17T13:16:26.433Z,16.58
2022-08-17T13:18:58.327Z,16.90
2022-08-17T13:21:28.545Z,17.98
2022-08-17T13:24:00.802Z,17.23
2022-08-17T13:26:32.712Z,16.50
2022-08-17T13:29:01.066Z,17.10
2022-08-17T13:31:39.443Z,17.08
2022-08-17T13:34:34.181Z,17.95
2022-08-17T13:37:26.432Z,16.73
2022-08-17T13:39:57.451Z,17.08
2022-08-17T13:42:50.242Z,16.63
2022-08-17T13:45:38.952Z,17.00
2022-08-17T13:48:13.761Z,16.83
2022-08-17T13:50:44.977Z,17.65
2022-08-17T13:53:20.947Z,17.45
2022-08-17T13:55:51.806Z,16.67
2022-08-17T13:58:24.157Z,16.92
2022-08-17T14:00:52.676Z,16.67
2022-08-17T14:03:21.175Z,17.13
2022-08-17T14:05:50.026Z,16.67
2022-08-17T14:08:19.289Z,16.65
2022-08-17T14:10:57.695Z,17.25
2022-08-17T14:13:25.319Z,16.60
2022-08-17T14:15:55.985Z,16.42
2022-08-17T14:18:42.052Z,16.45
2022-08-17T14:21:12.304Z,16.70
2022-08-17T14:23:40.790Z,16.52
2022-08-17T14:26:12.434Z,16.20
2022-08-17T14:28:54.420Z,17.15
2022-08-17T14:31:22.490Z,16.95
2022-08-17T14:33:49.970Z,16.90
2022-08-17T14:36:17.520Z,17.10
2022-08-17T14:38:45.289Z,17.27
2022-08-17T14:41:18.734Z,16.98
2022-08-17T14:43:49.437Z,17.60
2022-08-17T14:46:16.935Z,16.50
2022-08-17T14:48:44.448Z,16.33
2022-08-17T14:51:11.961Z,16.17
2022-08-17T14:53:39.479Z,16.38
2022-08-17T14:56:07.790Z,16.52
2022-08-17T14:58:36.654Z,17.00
2022-08-17T15:01:07.619Z,16.80
2022-08-17T15:03:39.923Z,15.93
2022-08-17T15:06:09.059Z,15.35
2022-08-17T15:08:37.118Z,15.70
2022-08-17T15:11:05.062Z,16.05
2022-08-17T15:13:32.584Z,15.88
2022-08-17T15:16:02.362Z,15.70
2022-08-17T15:18:30.413Z,16.30
2022-08-17T15:20:58.143Z,16.15
2022-08-17T15:23:27.410Z,15.75
2022-08-17T15:25:55.893Z,16.90
2022-08-17T15:28:23.702Z,16.40
2022-08-17T15:30:51.390Z,17.35
2022-08-17T15:33:23.733Z,16.30
2022-08-17T15:35:52.149Z,16.92
2022-08-17T15:38:20.079Z,16.13
2022-08-17T15:40:49.822Z,17.05
2022-08-17T15:43:27.107Z,16.40
2022-08-17T15:46:00.460Z,16.45
2022-08-17T15:48:41.202Z,16.23
2022-08-17T15:51:10.526Z,16.15
2022-08-17T15:53:38.926Z,16.15
2022-08-17T15:56:06.831Z,15.95
2022-08-17T15:58:34.842Z,16.00
2022-08-17T16:01:16.481Z,16.23
2022-08-17T16:04:04.821Z,16.92
2022-08-17T16:06:35.427Z,16.48
2022-08-17T16:09:02.915Z,16.55
2022-08-17T16:11:30.421Z,16.08
2022-08-17T16:13:57.883Z,15.52
2022-08-17T16:16:26.009Z,16.48
2022-08-17T16:18:59.176Z,16.92
2022-08-17T16:21:27.411Z,16.30
2022-08-17T16:23:57.989Z,16.65
2022-08-17T16:26:26.150Z,16.40
2022-08-17T16:28:54.274Z,16.63
2022-08-17T16:31:22.026Z,16.73
2022-08-17T16:34:08.998Z,17.02
2022-08-17T16:36:39.982Z,16.35
2022-08-17T16:39:07.494Z,16.08
2022-08-17T16:41:44.961Z,16.27
2022-08-17T16:44:15.446Z,17.25
2022-08-17T16:46:45.773Z,17.33
2022-08-17T16:49:35.297Z,16.17
2022-08-17T16:52:03.965Z,15.73
2022-08-17T16:54:31.543Z,16.20
2022-08-17T16:56:59.113Z,16.05
2022-08-17T16:59:30.796Z,16.30
2022-08-17T17:02:10.771Z,16.55
2022-08-17T17:04:43.281Z,16.38
2022-08-17T17:07:24.313Z,16.35
2022-08-17T17:09:55.278Z,17.45
2022-08-17T17:12:59.442Z,16.83
2022-08-17T17:15:11.905Z,22.58
2022-08-17T17:17:40.491Z,21.27
2022-08-17T17:20:11.535Z,18.63
2022-08-17T17:22:47.182Z,20.30
2022-08-17T17:25:20.642Z,19.05
2022-08-17T17:27:51.546Z,16.77
2022-08-17T17:30:24.030Z,18.88
2022-08-17T17:32:54.014Z,18.98
2022-08-17T17:35:26.478Z,19.05
2022-08-17T17:37:58.063Z,20.30
2022-08-17T17:40:30.230Z,17.88
2022-08-17T17:43:14.244Z,17.48
2022-08-17T17:45:52.030Z,18.02
2022-08-17T17:48:19.594Z,18.85
2022-08-17T17:50:54.450Z,18.45
2022-08-17T17:53:41.714Z,18.23
2022-08-17T17:56:19.615Z,18.20
2022-08-17T17:59:12.709Z,16.85
2022-08-17T18:01:47.593Z,16.80
2022-08-17T18:04:21.980Z,17.35
2022-08-17T18:06:59.240Z,17.38
2022-08-17T18:09:36.837Z,16.87
2022-08-17T18:12:19.642Z,17.30
2022-08-17T18:14:58.436Z,17.00
2022-08-17T18:17:26.402Z,16.27
2022-08-17T18:19:55.244Z,15.73
2022-08-17T18:22:24.137Z,15.80
2022-08-17T18:24:55.959Z,15.60
2022-08-17T18:27:26.569Z,15.57
2022-08-17T18:29:55.905Z,15.73
2022-08-17T18:32:38.283Z,15.30
2022-08-17T18:35:28.878Z,15.07
2022-08-17T18:37:58.299Z,14.60
2022-08-17T18:40:37.408Z,14.93
2022-08-17T18:43:11.593Z,15.13
2022-08-17T18:45:42.975Z,14.93
2022-08-17T18:48:33.027Z,14.30
2022-08-17T18:51:02.772Z,14.40
2022-08-17T18:53:38.993Z,14.07
2022-08-17T18:56:26.248Z,17.00
2022-08-17T18:59:04.760Z,17.83
2022-08-17T19:01:52.469Z,18.63
2022-08-17T19:04:38.058Z,19.93
2022-08-17T19:07:13.573Z,19.77
2022-08-17T19:09:45.019Z,18.70
2022-08-17T19:12:27.309Z,20.80
2022-08-17T19:14:56.641Z,20.77
2022-08-17T19:17:28.222Z,23.53
2022-08-17T19:20:00.965Z,23.30
2022-08-17T19:22:31.267Z,23.80
2022-08-17T19:25:08.495Z,23.20
2022-08-17T19:27:46.312Z,23.90
2022-08-17T19:30:16.732Z,25.37
2022-08-17T19:32:44.415Z,24.03
2022-08-17T19:35:17.378Z,27.07
2022-08-17T19:37:57.255Z,26.70
2022-08-17T19:40:51.710Z,27.10
2022-08-17T19:43:24.797Z,28.10
2022-08-17T19:46:01.592Z,30.77
2022-08-17T19:48:40.729Z,29.73
2022-08-17T19:51:12.710Z,30.17
2022-08-17T19:54:04.350Z,30.20
2022-08-17T19:56:37.169Z,29.87
2022-08-17T19:59:12.877Z,29.47
2022-08-17T20:01:45.759Z,30.93
2022-08-17T20:04:17.745Z,31.03
2022-08-17T20:06:49.175Z,30.13
2022-08-17T20:09:21.505Z,32.13
2022-08-17T20:11:52.112Z,32.70
2022-08-17T20:14:23.054Z,32.97
2022-08-17T20:16:50.991Z,33.37
2022-08-17T20:19:23.825Z,39.10
2022-08-17T20:21:55.263Z,34.20
2022-08-17T20:24:27.174Z,33.30
2022-08-17T20:26:58.416Z,34.20
2022-08-17T20:29:40.340Z,35.67
2022-08-17T20:32:16.370Z,37.23
2022-08-17T20:34:46.614Z,36.17
2022-08-17T20:37:28.033Z,38.10
2022-08-17T20:40:23.546Z,35.97
2022-08-17T20:42:51.049Z,36.70
2022-08-17T20:46:06.166Z,40.60
2022-08-17T20:48:39.140Z,39.23
2022-08-17T20:51:19.420Z,36.20
2022-08-17T20:54:34.190Z,41.70
2022-08-17T20:57:02.469Z,44.77
2022-08-17T21:00:04.132Z,46.67
2022-08-17T21:02:32.252Z,46.13
2022-08-17T21:05:08.283Z,46.13
2022-08-17T21:07:55.539Z,44.30
2022-08-17T21:10:35.413Z,43.63
2022-08-17T21:13:28.189Z,40.60
2022-08-17T21:15:59.850Z,40.03
2022-08-17T21:18:33.197Z,37.93
2022-08-17T21:21:17.607Z,42.57
2022-08-17T21:24:11.874Z,46.73
2022-08-17T21:26:51.128Z,49.63
2022-08-17T21:29:30.925Z,50.77
2022-08-17T21:32:19.196Z,44.30
2022-08-17T21:35:23.204Z,47.00
2022-08-17T21:37:58.403Z,54.10
2022-08-17T21:40:28.886Z,50.90
2022-08-17T21:42:59.013Z,51.47
2022-08-17T21:45:28.846Z,48.53
2022-08-17T21:48:14.029Z,51.47
2022-08-17T21:50:44.111Z,47.67
2022-08-17T21:53:17.963Z,52.10
2022-08-17T21:55:50.267Z,48.67
2022-08-17T21:58:28.750Z,53.47
2022-08-17T22:01:22.050Z,50.80
2022-08-17T22:03:56.775Z,56.70
2022-08-17T22:06:27.738Z,49.40
2022-08-17T22:09:02.229Z,52.80
2022-08-17T22:11:29.806Z,64.90
2022-08-17T22:14:05.348Z,61.10
2022-08-17T22:16:33.639Z,59.83
2022-08-17T22:19:01.237Z,62.73
2022-08-17T22:21:28.911Z,70.13
2022-08-17T22:24:05.321Z,72.67
2022-08-17T22:27:00.054Z,72.60
2022-08-17T22:29:57.457Z,77.60
2022-08-17T22:32:34.339Z,82.70
2022-08-17T22:35:34.377Z,80.60
2022-08-17T22:38:32.526Z,82.33
2022-08-17T22:41:27.527Z,77.93
2022-08-17T22:43:57.312Z,83.20
2022-08-17T22:46:25.487Z,86.97
2022-08-17T22:48:56.666Z,83.13
2022-08-17T22:51:27.071Z,89.73
2022-08-17T22:54:15.305Z,81.37
2022-08-17T22:57:08.370Z,80.17
2022-08-17T22:59:43.511Z,95.50
2022-08-17T23:02:19.467Z,87.83
2022-08-17T23:04:51.086Z,93.67
2022-08-17T23:07:19.850Z,89.70
2022-08-17T23:09:47.525Z,87.30
2022-08-17T23:12:19.697Z,98.10
2022-08-17T23:14:51.181Z,91.03
2022-08-17T23:17:18.721Z,91.03
2022-08-17T23:19:46.290Z,92.17
2022-08-17T23:22:13.802Z,95.73
2022-08-17T23:24:48.878Z,101.63
2022-08-17T23:27:18.358Z,94.43
2022-08-17T23:29:47.030Z,102.70
2022-08-17T23:32:16.693Z,104.50
2022-08-17T23:34:48.071Z,107.63
2022-08-17T23:37:16.696Z,112.07
2022-08-17T23:39:45.406Z,112.43
2022-08-17T23:42:16.737Z,110.73
2022-08-17T23:44:45.595Z,123.40
2022-08-17T23:47:13.183Z,132.20
2022-08-17T23:49:41.263Z,127.77
2022-08-17T23:52:12.485Z,128.60
2022-08-17T23:54:44.674Z,127.50
2022-08-17T23:57:13.845Z,154.07
2022-08-17T23:59:43.733Z,144.53
